»·PEaware :: N5446F KCMA-KSNA

N5446F :: KCMA-KSNA

FLIGHT INFORMATION

Flight Status: Arrived
Operator: Privately registered:
United States
More flights under this callsign
Pilot: Leith A. (37255)
Aircraft: CESSNA 172 SKYHAWK
(C172)
More flights by this aircraft type
Origin: KCMA Camarillo
United States
Destination: KSNA John Wayne-Orange Co
United States
More flights between these airports :: More routes between these airports
Route: VFR
File this flight plan on PilotEdge
Remarks:
Altitude:
(Current/Filed)
5,500ft
Speed:
(Current/Filed)
100kts
Departed: 14-Jan-22 10:46 AM
Arrived: 14-Jan-22 11:41 AM
Distance/Time
Traveled:
69nm/0:54
Distance/Time
To Go:
Arrived

Flight Plot

Page will automatically refresh every two minutes.

Flight plan parsing failed; only flown route is shown


Map Options




Map Legend


Flown Route
Filed Route
Departure Airport
Arrival Airport
Navaid (VOR, NDB)
Fix

Horizontal Profiles

Position Reports

Time Latitude Longitude Heading Altitude Ground
Speed
14-Jan-22 10:08 34.210670 -119.091375 183 76ft 0kts
14-Jan-22 10:09 34.210670 -119.091375 183 76ft 0kts
14-Jan-22 10:10 34.210670 -119.091375 183 76ft 0kts
14-Jan-22 10:11 34.210670 -119.091375 183 76ft 0kts
14-Jan-22 10:12 34.210670 -119.091375 183 76ft 0kts
14-Jan-22 10:13 34.210670 -119.091375 183 76ft 0kts
14-Jan-22 10:14 34.210670 -119.091375 183 76ft 0kts
14-Jan-22 10:15 34.210670 -119.091375 183 76ft 0kts
14-Jan-22 10:16 34.210670 -119.091375 183 76ft 0kts
14-Jan-22 10:17 34.210670 -119.091375 183 76ft 0kts
14-Jan-22 10:23 34.210636 -119.090042 271 77ft 0kts
14-Jan-22 10:24 34.210636 -119.090042 271 77ft 0kts
14-Jan-22 10:25 34.210636 -119.090042 271 77ft 0kts
14-Jan-22 10:26 34.210636 -119.090042 271 77ft 0kts
14-Jan-22 10:27 34.210636 -119.090042 271 77ft 0kts
14-Jan-22 10:28 34.210636 -119.090042 271 77ft 0kts
14-Jan-22 10:29 34.210636 -119.090042 271 77ft 0kts
14-Jan-22 10:30 34.210636 -119.090042 271 77ft 0kts
14-Jan-22 10:31 34.210636 -119.090042 271 77ft 0kts
14-Jan-22 10:32 34.210636 -119.090042 271 77ft 0kts
14-Jan-22 10:33 34.210636 -119.090042 271 77ft 0kts
14-Jan-22 10:34 34.210636 -119.090042 271 77ft 0kts
14-Jan-22 10:35 34.210636 -119.090042 271 77ft 0kts
14-Jan-22 10:36 34.210636 -119.090042 271 77ft 0kts
14-Jan-22 10:37 34.210636 -119.090042 271 77ft 0kts
14-Jan-22 10:38 34.210637 -119.090045 273 77ft 0kts
14-Jan-22 10:39 34.210950 -119.086567 90 79ft 21kts
14-Jan-22 10:40 34.212746 -119.084615 0 80ft 10kts
14-Jan-22 10:41 34.212841 -119.084615 358 80ft 0kts
14-Jan-22 10:42 34.212841 -119.084615 358 80ft 0kts
14-Jan-22 10:43 34.212841 -119.084615 358 80ft 0kts
14-Jan-22 10:44 34.213673 -119.085518 270 79ft 25kts
14-Jan-22 10:45 34.213970 -119.109548 267 691ft 79kts
14-Jan-22 10:46 34.212451 -119.136528 265 1603ft 76kts
14-Jan-22 10:47 34.208314 -119.163542 228 2387ft 85kts
14-Jan-22 10:48 34.190988 -119.157043 90 3181ft 87kts
14-Jan-22 10:49 34.197359 -119.127632 68 3891ft 88kts
14-Jan-22 10:50 34.209528 -119.103026 64 4645ft 83kts
14-Jan-22 10:51 34.221133 -119.074940 65 5201ft 96kts
14-Jan-22 10:52 34.232966 -119.046021 65 5554ft 105kts
14-Jan-22 10:53 34.241453 -119.012683 78 5494ft 102kts
14-Jan-22 10:54 34.240824 -118.977313 92 5456ft 105kts
14-Jan-22 10:55 34.239892 -118.942035 91 5462ft 105kts
14-Jan-22 10:56 34.239411 -118.906635 90 5463ft 105kts
14-Jan-22 10:57 34.239368 -118.871287 89 5466ft 105kts
14-Jan-22 10:58 34.239751 -118.835808 88 5466ft 105kts
14-Jan-22 10:59 34.240477 -118.800229 88 5465ft 109kts
14-Jan-22 11:00 34.241624 -118.762585 87 5467ft 113kts
14-Jan-22 11:01 34.242897 -118.724461 87 5467ft 113kts
14-Jan-22 11:02 34.244316 -118.686329 87 5467ft 114kts
14-Jan-22 11:03 34.245789 -118.649697 86 5456ft 103kts
14-Jan-22 11:04 34.248965 -118.616057 59 5444ft 100kts
14-Jan-22 11:05 34.271696 -118.605692 314 5412ft 98kts
14-Jan-22 11:06 34.258551 -118.616000 124 5366ft 100kts
14-Jan-22 11:07 34.248685 -118.586060 128 5480ft 94kts
14-Jan-22 11:08 34.222133 -118.571954 167 5377ft 111kts
14-Jan-22 11:09 34.193624 -118.559039 162 5421ft 108kts
14-Jan-22 11:10 34.164927 -118.548680 162 5493ft 105kts
14-Jan-22 11:11 34.135821 -118.535869 162 5393ft 114kts
14-Jan-22 11:12 34.106582 -118.523278 156 5444ft 109kts
14-Jan-22 11:13 34.079654 -118.506134 145 5477ft 110kts
14-Jan-22 11:15 34.051980 -118.491241 165 5492ft 109kts
14-Jan-22 11:16 34.022727 -118.482042 162 5532ft 109kts
14-Jan-22 11:17 33.994147 -118.469400 162 5569ft 109kts
14-Jan-22 11:18 33.966018 -118.455679 166 5599ft 109kts
14-Jan-22 11:19 33.936059 -118.446813 168 5587ft 110kts
14-Jan-22 11:20 33.912448 -118.425119 114 5530ft 112kts
14-Jan-22 11:21 33.897140 -118.393449 136 5500ft 109kts
14-Jan-22 11:22 33.874170 -118.369107 131 5486ft 110kts
14-Jan-22 11:23 33.849985 -118.346345 151 5448ft 110kts
14-Jan-22 11:24 33.826283 -118.322716 145 5461ft 110kts
14-Jan-22 11:25 33.799370 -118.304630 153 5485ft 110kts
14-Jan-22 11:26 33.777178 -118.279111 134 5497ft 110kts
14-Jan-22 11:27 33.760992 -118.247399 114 5501ft 110kts
14-Jan-22 11:28 33.748597 -118.215508 113 5518ft 111kts
14-Jan-22 11:29 33.735688 -118.181262 117 5465ft 115kts
14-Jan-22 11:30 33.718177 -118.149049 124 5228ft 118kts
14-Jan-22 11:31 33.704984 -118.116135 106 4760ft 122kts
14-Jan-22 11:32 33.699252 -118.076900 101 4131ft 116kts
14-Jan-22 11:33 33.689106 -118.041052 112 3434ft 110kts
14-Jan-22 11:34 33.680684 -118.005256 107 2312ft 109kts
14-Jan-22 11:35 33.674870 -117.972285 100 1861ft 99kts
14-Jan-22 11:36 33.674902 -117.938384 87 1613ft 104kts
14-Jan-22 11:36 33.674913 -117.908820 94 1179ft 107kts
14-Jan-22 11:38 33.685654 -117.877677 30 778ft 96kts
14-Jan-22 11:38 33.699036 -117.863105 120 740ft 86kts
14-Jan-22 11:40 33.677495 -117.867731 207 53ft 43kts
14-Jan-22 11:41 33.676089 -117.870133 293 54ft 12kts
14-Jan-22 11:42 33.676061 -117.871063 174 52ft 0kts
14-Jan-22 11:42 33.676061 -117.871063 174 52ft 0kts
14-Jan-22 11:43 33.676061 -117.871063 174 52ft 0kts
14-Jan-22 11:45 33.676061 -117.871063 174 52ft 0kts

Navigation Log

Ident Type
Flight plan parsing failed, navigation log unavailable